Time;durP1;ratioP1;P1;durP2;ratioP2;P2;SDS_P1;SDS_P2;PMS_P1;PMS_P2;Temp;Humidity;BMP_temperature;BMP_pressure;BME280_temperature;BME280_humidity;BME280_pressure;Samples;Min_cycle;Max_cycle;Signal;HPM_P1;HPM_P2
2023/06/08 04:00:59;;;;;;;0.60;0.10;;;18.30;12.70;;;;;;5751966;23;20504;-79
2023/06/08 04:03:28;;;;;;;0.60;0.43;;;18.20;13.90;;;;;;4970671;28;20442;-79
2023/06/08 04:05:56;;;;;;;1.90;0.97;;;18.20;14.90;;;;;;4972716;28;20528;-78
2023/06/08 04:08:26;;;;;;;0.70;0.53;;;18.20;15.70;;;;;;4973081;28;20498;-78
2023/06/08 04:10:54;;;;;;;0.60;0.20;;;18.20;15.70;;;;;;4969819;28;20458;-78
2023/06/08 04:13:22;;;;;;;0.87;0.60;;;18.20;15.50;;;;;;4957670;29;20999;-78
2023/06/08 04:15:50;;;;;;;6.40;2.10;;;18.20;15.90;;;;;;4958087;29;20537;-79
2023/06/08 04:18:19;;;;;;;0.60;0.30;;;18.30;15.50;;;;;;4957280;29;20489;-79
2023/06/08 04:20:47;;;;;;;1.07;0.43;;;18.30;14.70;;;;;;4957574;28;20551;-79
2023/06/08 04:23:15;;;;;;;0.60;0.10;;;18.40;15.30;;;;;;4957234;29;20445;-79
2023/06/08 04:25:43;;;;;;;0.70;0.33;;;18.30;23.40;;;;;;4956861;29;20454;-79
2023/06/08 04:28:12;;;;;;;0.60;0.20;;;18.50;16.20;;;;;;4957536;29;20555;-79
2023/06/08 04:30:39;;;;;;;0.70;0.20;;;18.40;16.60;;;;;;4957323;28;20477;-79
2023/06/08 04:33:08;;;;;;;0.60;0.30;;;18.40;18.50;;;;;;4957950;29;20529;-79
2023/06/08 04:35:38;;;;;;;2.30;1.60;;;18.40;21.50;;;;;;4958728;29;20453;-79
2023/06/08 04:38:14;;;;;;;0.80;0.50;;;18.20;26.80;;;;;;4957640;29;20567;-79
2023/06/08 04:40:48;;;;;;;0.70;0.37;;;18.10;36.60;;;;;;4957647;28;20446;-78
2023/06/08 04:43:17;;;;;;;0.60;0.10;;;18.10;44.10;;;;;;4958464;29;20430;-80
2023/06/08 04:45:45;;;;;;;1.20;1.10;;;18.10;47.10;;;;;;4957862;28;20949;-78
2023/06/08 04:48:13;;;;;;;0.70;0.30;;;18.20;51.60;;;;;;4968848;29;20446;-78
2023/06/08 04:50:45;;;;;;;0.70;0.20;;;18.20;52.80;;;;;;4976203;28;20452;-78
2023/06/08 04:53:14;;;;;;;0.60;0.10;;;18.40;57.70;;;;;;4972829;29;20446;-78
2023/06/08 04:55:44;;;;;;;0.60;0.10;;;18.30;69.50;;;;;;4959454;29;20465;-78
2023/06/08 04:58:13;;;;;;;0.60;0.20;;;18.50;70.00;;;;;;4960476;28;21038;-78
2023/06/08 05:00:41;;;;;;;1.43;1.30;;;18.70;60.00;;;;;;4959502;29;20557;-78
2023/06/08 05:03:10;;;;;;;0.60;0.10;;;18.80;59.50;;;;;;4958738;29;21187;-78
2023/06/08 05:05:38;;;;;;;0.60;0.17;;;18.90;59.50;;;;;;4958877;29;20481;-78
2023/06/08 05:08:07;;;;;;;1.00;0.77;;;19.00;60.20;;;;;;4957801;29;21172;-78
2023/06/08 05:10:35;;;;;;;0.87;0.23;;;19.00;57.40;;;;;;4957374;28;20526;-78
2023/06/08 05:13:03;;;;;;;0.60;0.30;;;19.10;57.00;;;;;;4957406;29;20482;-78
2023/06/08 05:15:31;;;;;;;0.60;0.10;;;19.00;68.80;;;;;;4956992;29;20538;-78
2023/06/08 05:18:00;;;;;;;0.60;0.17;;;19.10;56.30;;;;;;4957938;29;20454;-79
2023/06/08 05:20:29;;;;;;;0.60;0.20;;;19.10;57.80;;;;;;4959289;29;20446;-78
2023/06/08 05:22:58;;;;;;;1.37;1.27;;;19.10;70.70;;;;;;4969089;28;20447;-79
2023/06/08 05:25:29;;;;;;;0.60;0.10;;;19.20;63.10;;;;;;4961451;29;20604;-78
2023/06/08 05:27:57;;;;;;;0.60;0.20;;;19.20;75.30;;;;;;4957868;29;20514;-78
2023/06/08 05:30:26;;;;;;;14.43;5.83;;;19.40;66.50;;;;;;4957338;29;20543;-79
2023/06/08 05:32:55;;;;;;;0.60;0.10;;;19.40;59.70;;;;;;4956148;29;20454;-79
2023/06/08 05:35:23;;;;;;;0.60;0.20;;;19.50;69.70;;;;;;4956101;29;20806;-78
2023/06/08 05:37:52;;;;;;;0.60;0.10;;;19.50;62.50;;;;;;4956947;29;20482;-79
2023/06/08 05:40:20;;;;;;;0.60;0.10;;;19.60;44.00;;;;;;4956532;29;20489;-78
2023/06/08 05:42:50;;;;;;;0.67;0.40;;;19.60;38.60;;;;;;4956167;29;20511;-78
2023/06/08 05:45:18;;;;;;;0.60;0.20;;;19.60;38.00;;;;;;4956655;29;20470;-78
2023/06/08 05:47:46;;;;;;;0.60;0.10;;;19.50;48.30;;;;;;4956648;29;20546;-79
2023/06/08 05:50:14;;;;;;;0.60;0.40;;;19.60;40.10;;;;;;4956854;29;20461;-77
2023/06/08 05:52:42;;;;;;;0.60;0.10;;;19.60;41.40;;;;;;4946402;28;20491;-77
2023/06/08 05:55:10;;;;;;;0.70;0.40;;;19.50;41.00;;;;;;4952931;29;20953;-78
2023/06/08 05:57:40;;;;;;;2.50;1.30;;;19.60;42.20;;;;;;4960535;28;20457;-77
2023/06/08 06:00:12;;;;;;;0.60;0.20;;;19.60;42.20;;;;;;4956384;29;20575;-76
2023/06/08 06:02:41;;;;;;;0.70;0.40;;;19.60;41.90;;;;;;4969974;28;20504;-77
2023/06/08 06:05:10;;;;;;;0.60;0.20;;;19.60;40.90;;;;;;4963056;28;20509;-78
2023/06/08 06:07:38;;;;;;;0.70;0.50;;;19.70;38.50;;;;;;4944278;28;20458;-77
2023/06/08 06:10:07;;;;;;;1.53;1.27;;;19.60;37.10;;;;;;4938270;29;20449;-76
2023/06/08 06:12:36;;;;;;;0.60;0.20;;;19.60;34.50;;;;;;4954933;28;20525;-78
2023/06/08 06:15:04;;;;;;;0.70;0.40;;;19.70;39.50;;;;;;4944548;28;20454;-77
2023/06/08 06:17:33;;;;;;;0.60;0.20;;;19.80;41.10;;;;;;4967670;28;20946;-78
2023/06/08 06:20:05;;;;;;;1.00;0.60;;;19.90;42.30;;;;;;4961921;28;20552;-77
2023/06/08 06:22:33;;;;;;;0.60;0.10;;;19.90;41.70;;;;;;4966004;28;20500;-77
2023/06/08 06:25:01;;;;;;;1.57;0.50;;;20.00;36.60;;;;;;4951858;28;20467;-77
2023/06/08 06:27:29;;;;;;;0.60;0.10;;;20.00;38.30;;;;;;4949171;29;20478;-78
2023/06/08 06:29:57;;;;;;;0.60;0.10;;;20.00;49.10;;;;;;4957128;29;20448;-78
2023/06/08 06:32:25;;;;;;;0.60;0.10;;;20.20;38.80;;;;;;4953300;28;21026;-78
2023/06/08 06:34:54;;;;;;;1.00;0.90;;;20.20;32.20;;;;;;4954952;28;20451;-79
2023/06/08 06:37:22;;;;;;;1.67;1.57;;;20.10;28.30;;;;;;4955167;29;20537;-78
2023/06/08 06:39:50;;;;;;;0.60;0.30;;;20.10;38.40;;;;;;4956167;29;20479;-78
2023/06/08 06:42:18;;;;;;;0.80;0.40;;;20.30;29.30;;;;;;4955816;28;20899;-77
2023/06/08 06:44:46;;;;;;;3.07;1.60;;;20.30;26.40;;;;;;4954984;29;20458;-77
2023/06/08 06:47:14;;;;;;;0.60;0.10;;;20.50;26.20;;;;;;4964659;28;20893;-77
2023/06/08 06:49:41;;;;;;;0.60;0.10;;;20.60;27.60;;;;;;4955792;28;20454;-75
2023/06/08 06:52:11;;;;;;;0.60;0.10;;;20.60;28.60;;;;;;4950416;28;20471;-73
2023/06/08 06:54:38;;;;;;;0.60;0.10;;;20.80;27.60;;;;;;4953425;29;20443;-75
2023/06/08 06:57:07;;;;;;;0.60;0.20;;;20.90;37.90;;;;;;4955498;29;20444;-74
2023/06/08 06:59:36;;;;;;;4.93;1.03;;;21.20;18.10;;;;;;4946852;28;20545;-76
2023/06/08 07:02:05;;;;;;;0.60;0.10;;;21.30;19.30;;;;;;4965232;28;20845;-75
2023/06/08 07:04:33;;;;;;;0.60;0.20;;;21.30;27.60;;;;;;4958632;28;20978;-76
2023/06/08 07:07:01;;;;;;;0.60;0.10;;;21.40;18.80;;;;;;4945020;29;20480;-76
2023/06/08 07:09:32;;;;;;;0.60;0.20;;;21.60;14.60;;;;;;4948217;29;20445;-75
2023/06/08 07:11:59;;;;;;;1.47;0.70;;;21.60;15.60;;;;;;4941004;28;20564;-76
2023/06/08 07:14:43;;;;;;;0.60;0.20;;;21.60;22.20;;;;;;4949492;29;20447;-75
2023/06/08 07:17:11;;;;;;;0.60;0.10;;;21.50;19.60;;;;;;4950728;29;20967;-75
2023/06/08 07:19:40;;;;;;;0.60;0.13;;;21.50;14.70;;;;;;4943976;29;20481;-75
2023/06/08 07:22:08;;;;;;;0.73;0.47;;;21.50;15.00;;;;;;4953492;29;20474;-75
2023/06/08 07:24:43;;;;;;;0.60;0.10;;;21.60;16.00;;;;;;4958691;28;20487;-75
2023/06/08 07:27:31;;;;;;;0.70;0.20;;;21.60;24.40;;;;;;4958080;28;20446;-76
2023/06/08 07:29:59;;;;;;;0.60;0.10;;;21.60;25.70;;;;;;4962681;28;20574;-75
2023/06/08 07:32:28;;;;;;;0.60;0.20;;;21.60;16.90;;;;;;4958456;28;20503;-75
2023/06/08 07:34:56;;;;;;;0.60;0.13;;;21.60;15.60;;;;;;4957555;28;20489;-75
2023/06/08 07:37:24;;;;;;;0.60;0.10;;;21.60;24.00;;;;;;4957490;28;20499;-76
2023/06/08 07:39:53;;;;;;;0.60;0.20;;;21.60;15.10;;;;;;4954982;29;20580;-76
2023/06/08 07:42:21;;;;;;;0.70;0.30;;;21.60;15.50;;;;;;4951592;28;20487;-75
2023/06/08 07:44:50;;;;;;;0.60;0.20;;;;;;;;;;4969224;28;20458;-75
2023/06/08 07:47:18;;;;;;;0.70;0.30;;;21.40;14.40;;;;;;4967259;28;20483;-76
2023/06/08 07:49:46;;;;;;;0.60;0.10;;;21.60;22.70;;;;;;4962850;28;20864;-75
2023/06/08 07:52:14;;;;;;;1.30;0.40;;;21.60;13.20;;;;;;4959749;28;20479;-76
2023/06/08 07:54:42;;;;;;;0.60;0.10;;;21.70;14.40;;;;;;4948268;28;20531;-77
2023/06/08 07:57:13;;;;;;;0.60;0.10;;;21.80;14.00;;;;;;4956875;29;20523;-77
2023/06/08 07:59:41;;;;;;;4.67;1.37;;;24.70;16.70;;;;;;4954460;29;20981;-76
2023/06/08 08:02:09;;;;;;;0.60;0.13;;;22.20;14.20;;;;;;4959749;28;20503;-76
2023/06/08 08:04:38;;;;;;;1.57;0.97;;;22.30;11.40;;;;;;4964713;28;20475;-76
2023/06/08 08:07:06;;;;;;;1.63;0.57;;;22.30;11.00;;;;;;4956903;28;20858;-77
2023/06/08 08:09:35;;;;;;;0.70;0.20;;;22.30;12.30;;;;;;4954057;28;20534;-76
2023/06/08 08:12:03;;;;;;;1.30;1.10;;;22.40;12.90;;;;;;4951585;29;20535;-76
2023/06/08 08:14:32;;;;;;;0.60;0.10;;;22.40;12.80;;;;;;4951388;28;20507;-76
2023/06/08 08:17:00;;;;;;;0.60;0.20;;;22.50;21.00;;;;;;4940962;28;20532;-78
2023/06/08 08:19:28;;;;;;;0.67;0.23;;;22.70;20.80;;;;;;4944744;28;20841;-78
2023/06/08 08:21:56;;;;;;;0.70;0.33;;;22.70;12.00;;;;;;4954254;29;20476;-79
2023/06/08 08:24:24;;;;;;;0.60;0.20;;;22.80;11.50;;;;;;4969138;28;20460;-77
2023/06/08 08:26:55;;;;;;;0.60;0.20;;;22.90;9.40;;;;;;4973924;28;20447;-77
2023/06/08 08:29:23;;;;;;;0.70;0.20;;;;;;;;;;4959433;28;20490;-78
2023/06/08 08:31:52;;;;;;;2.23;2.03;;;22.80;8.40;;;;;;4961211;28;20479;-78
2023/06/08 08:34:20;;;;;;;0.60;0.10;;;22.80;8.10;;;;;;4955657;29;20450;-77
2023/06/08 08:36:48;;;;;;;0.70;0.20;;;22.70;8.70;;;;;;4967077;28;20444;-78
2023/06/08 08:39:16;;;;;;;0.70;0.20;;;22.80;8.50;;;;;;4963858;28;20460;-78
2023/06/08 08:41:46;;;;;;;0.70;0.20;;;22.80;9.40;;;;;;4955474;28;20556;-77
2023/06/08 08:44:16;;;;;;;0.70;0.30;;;22.90;9.40;;;;;;4954322;28;20478;-77
2023/06/08 08:46:46;;;;;;;0.70;0.20;;;22.80;7.40;;;;;;4956678;28;20579;-77
2023/06/08 08:49:16;;;;;;;1.33;0.63;;;22.70;5.80;;;;;;4955222;29;20460;-79
2023/06/08 08:51:49;;;;;;;0.60;0.20;;;22.80;7.40;;;;;;4958875;28;20479;-77
2023/06/08 08:54:18;;;;;;;0.63;0.20;;;22.90;15.00;;;;;;4961714;28;20503;-78
2023/06/08 08:56:47;;;;;;;0.60;0.10;;;22.90;4.10;;;;;;4971738;28;20451;-79
2023/06/08 08:59:18;;;;;;;0.60;0.10;;;23.10;5.20;;;;;;4966834;28;20447;-78
2023/06/08 09:01:46;;;;;;;2.23;2.00;;;;;;;;;;4956267;28;20491;-79
2023/06/08 09:04:16;;;;;;;0.80;0.50;;;23.10;2.90;;;;;;4957010;29;20486;-78
2023/06/08 09:06:48;;;;;;;0.80;0.40;;;23.00;4.60;;;;;;4958634;29;21010;-78
2023/06/08 09:09:16;;;;;;;1.30;1.20;;;23.00;13.10;;;;;;4958665;29;20456;-78
2023/06/08 09:11:57;;;;;;;0.87;0.53;;;23.10;3.80;;;;;;4953364;29;20524;-78
2023/06/08 09:14:26;;;;;;;0.90;0.47;;;23.10;6.30;;;;;;4938299;29;20463;-79
2023/06/08 09:16:55;;;;;;;0.63;0.10;;;23.10;5.80;;;;;;4942229;29;20457;-78
2023/06/08 09:19:25;;;;;;;0.83;0.73;;;23.20;6.00;;;;;;4971879;28;20446;-78
2023/06/08 09:21:53;;;;;;;2.30;1.50;;;23.30;5.00;;;;;;4968471;28;20483;-78
2023/06/08 09:24:22;;;;;;;0.70;0.20;;;;;;;;;;4958149;28;20471;-74
2023/06/08 09:26:55;;;;;;;0.70;0.10;;;23.40;8.50;;;;;;4956115;28;20461;-76
2023/06/08 09:29:36;;;;;;;0.70;0.10;;;23.40;7.50;;;;;;4955451;28;20460;-78
2023/06/08 09:32:05;;;;;;;0.70;0.10;;;23.50;7.00;;;;;;4947118;29;20553;-80
2023/06/08 09:34:49;;;;;;;1.23;0.60;;;23.60;5.60;;;;;;4962367;28;20458;-78
2023/06/08 09:37:18;;;;;;;0.90;0.73;;;;;;;;;;4959198;29;20491;-79
2023/06/08 09:39:46;;;;;;;1.93;1.43;;;23.60;2.50;;;;;;4960478;29;20465;-78
2023/06/08 09:42:15;;;;;;;0.70;0.20;;;23.60;2.10;;;;;;4957947;29;20524;-77
2023/06/08 09:44:43;;;;;;;0.70;0.20;;;23.60;2.50;;;;;;4952309;28;20473;-78
2023/06/08 09:47:26;;;;;;;0.70;0.20;;;23.70;2.50;;;;;;4965663;28;20474;-78
2023/06/08 09:49:57;;;;;;;0.70;0.20;;;23.90;3.10;;;;;;4954542;28;20508;-78
2023/06/08 09:52:25;;;;;;;0.70;0.20;;;24.00;2.80;;;;;;4955777;28;20512;-77
2023/06/08 09:54:53;;;;;;;1.00;0.50;;;24.00;2.70;;;;;;4964482;28;20437;-78
2023/06/08 09:57:22;;;;;;;2.87;0.97;;;24.00;11.10;;;;;;4943282;29;20504;-79
2023/06/08 09:59:54;;;;;;;0.70;0.20;;;24.00;1.00;;;;;;4936454;29;20451;-79
2023/06/08 10:02:29;;;;;;;0.90;0.57;;;24.00;1.00;;;;;;4939670;29;20931;-78
2023/06/08 10:05:04;;;;;;;0.70;0.13;;;24.00;1.90;;;;;;4940442;29;20448;-79
2023/06/08 10:07:36;;;;;;;0.70;0.20;;;24.00;10.80;;;;;;4963485;28;20949;-80
2023/06/08 10:10:11;;;;;;;0.70;0.10;;;24.10;2.10;;;;;;4954973;28;20488;-79
2023/06/08 10:12:39;;;;;;;0.70;0.17;;;24.20;2.80;;;;;;4956845;28;20484;-78
2023/06/08 10:15:09;;;;;;;3.33;3.03;;;24.30;2.90;;;;;;4959640;29;20456;-78
2023/06/08 10:17:38;;;;;;;0.80;0.47;;;24.40;1.40;;;;;;4970338;28;20473;-78
2023/06/08 10:20:12;;;;;;;0.70;0.20;;;24.40;9.80;;;;;;4964404;28;20501;-77
2023/06/08 10:22:41;;;;;;;0.70;0.20;;;24.60;3.10;;;;;;4968628;28;20482;-77
2023/06/08 10:25:11;;;;;;;0.70;0.30;;;24.60;1.00;;;;;;4963665;29;20509;-77
2023/06/08 10:27:39;;;;;;;0.70;0.20;;;24.70;1.00;;;;;;4965509;29;20461;-78
2023/06/08 10:30:08;;;;;;;1.30;1.03;;;24.80;1.00;;;;;;4971513;28;20456;-78
2023/06/08 10:32:39;;;;;;;1.73;1.37;;;24.90;1.00;;;;;;4962936;28;20490;-79
2023/06/08 10:35:10;;;;;;;0.70;0.30;;;24.90;6.00;;;;;;4958721;29;20457;-77
2023/06/08 10:37:43;;;;;;;1.00;0.77;;;24.90;1.00;;;;;;4958216;29;20448;-79
2023/06/08 10:40:12;;;;;;;0.70;0.10;;;25.00;1.00;;;;;;4958711;29;20445;-79
2023/06/08 10:42:52;;;;;;;0.70;0.10;;;25.10;1.00;;;;;;4965135;28;20493;-78
2023/06/08 10:45:32;;;;;;;0.70;0.10;;;25.30;1.00;;;;;;4973230;29;20434;-76
2023/06/08 10:48:04;;;;;;;0.70;0.20;;;25.30;1.00;;;;;;4976749;29;20446;-77
2023/06/08 10:50:37;;;;;;;0.70;0.20;;;25.40;1.00;;;;;;4966505;28;20446;-78
2023/06/08 10:53:05;;;;;;;6.20;1.03;;;25.40;1.00;;;;;;4963490;29;20439;-77
2023/06/08 10:55:33;;;;;;;1.03;0.40;;;25.50;1.00;;;;;;4965192;29;20457;-79
2023/06/08 10:58:06;;;;;;;0.70;0.30;;;25.40;1.00;;;;;;4962258;29;20442;-77
2023/06/08 11:00:45;;;;;;;1.90;1.80;;;25.50;1.00;;;;;;4959577;28;20494;-79
2023/06/08 11:03:16;;;;;;;0.70;0.10;;;25.60;1.00;;;;;;4958385;29;20479;-78
2023/06/08 11:05:50;;;;;;;0.80;0.30;;;25.70;1.00;;;;;;4961510;28;21020;-79
2023/06/08 11:08:18;;;;;;;1.07;0.97;;;25.60;1.00;;;;;;4958959;29;20451;-77
2023/06/08 11:10:53;;;;;;;1.17;0.40;;;25.50;1.00;;;;;;4956625;28;20534;-78
2023/06/08 11:13:22;;;;;;;0.70;0.30;;;25.40;1.00;;;;;;4957832;29;20430;-80
2023/06/08 11:15:51;;;;;;;1.10;0.67;;;;;;;;;;4956891;29;20470;-77
2023/06/08 11:18:20;;;;;;;0.70;0.20;;;25.30;1.00;;;;;;4954283;29;20988;-77
2023/06/08 11:20:50;;;;;;;0.70;0.10;;;25.30;1.00;;;;;;4953807;28;20478;-79
2023/06/08 11:23:18;;;;;;;2.20;1.27;;;25.30;1.00;;;;;;4955927;29;20545;-79
2023/06/08 11:25:48;;;;;;;0.70;0.20;;;25.40;1.00;;;;;;4952684;29;20445;-78
2023/06/08 11:28:16;;;;;;;11.70;1.90;;;25.40;1.00;;;;;;4953544;29;20504;-77
2023/06/08 11:30:44;;;;;;;0.80;0.20;;;25.40;1.00;;;;;;4953757;28;20540;-78
2023/06/08 11:33:14;;;;;;;0.97;0.37;;;25.60;1.00;;;;;;4954406;29;20447;-77
2023/06/08 11:35:43;;;;;;;0.70;0.10;;;25.70;1.00;;;;;;4952263;28;20538;-78
2023/06/08 11:38:13;;;;;;;0.70;0.30;;;25.80;1.00;;;;;;4951468;29;20636;-77
2023/06/08 11:40:42;;;;;;;0.80;0.20;;;25.70;1.00;;;;;;4952753;28;20451;-76
2023/06/08 11:43:12;;;;;;;1.23;1.13;;;25.90;1.00;;;;;;4953420;29;20483;-76
2023/06/08 11:45:40;;;;;;;0.70;0.10;;;26.00;1.00;;;;;;4955759;29;20856;-76
2023/06/08 11:48:08;;;;;;;0.70;0.30;;;26.20;1.00;;;;;;4951543;29;20494;-77
2023/06/08 11:50:46;;;;;;;1.37;0.67;;;26.40;1.00;;;;;;4954357;28;20549;-76
2023/06/08 11:53:22;;;;;;;0.70;0.40;;;26.30;1.00;;;;;;4954513;29;20525;-76
2023/06/08 11:55:52;;;;;;;0.90;0.63;;;26.10;1.00;;;;;;4954327;29;20473;-78
2023/06/08 11:58:25;;;;;;;4.63;4.43;;;26.00;1.00;;;;;;4954813;29;20465;-76
2023/06/08 12:01:05;;;;;;;0.70;0.10;;;26.10;1.00;;;;;;4954377;28;20530;-76
2023/06/08 12:03:33;;;;;;;0.90;0.60;;;26.10;1.00;;;;;;4954459;29;20485;-77
2023/06/08 12:06:03;;;;;;;0.70;0.20;;;26.00;1.00;;;;;;4955932;29;20497;-77
2023/06/08 12:08:34;;;;;;;0.70;0.10;;;25.80;1.00;;;;;;4955531;29;20447;-77
2023/06/08 12:11:08;;;;;;;0.70;0.10;;;25.80;1.00;;;;;;4956004;28;20992;-78
2023/06/08 12:13:38;;;;;;;0.70;0.20;;;25.80;1.00;;;;;;4955942;29;20456;-72
2023/06/08 12:16:07;;;;;;;0.70;0.10;;;25.80;1.00;;;;;;4955550;28;20972;-72
2023/06/08 12:18:39;;;;;;;0.70;0.20;;;25.70;1.00;;;;;;4955991;28;20447;-71
2023/06/08 12:21:08;;;;;;;0.70;0.20;;;25.70;1.00;;;;;;4953345;28;20968;-71
2023/06/08 12:23:37;;;;;;;0.70;0.10;;;25.70;1.00;;;;;;4952819;29;20537;-73
2023/06/08 12:26:06;;;;;;;0.70;0.20;;;25.60;1.00;;;;;;4953548;29;20524;-71
2023/06/08 12:28:34;;;;;;;0.70;0.20;;;25.60;1.00;;;;;;4953671;29;21040;-72
2023/06/08 12:31:01;;;;;;;0.70;0.10;;;25.70;1.00;;;;;;4949377;28;20869;-72
2023/06/08 12:33:31;;;;;;;0.70;0.10;;;25.80;1.00;;;;;;4962889;28;20540;-72
2023/06/08 12:35:59;;;;;;;0.70;0.10;;;25.80;1.00;;;;;;4977160;28;20858;-72
2023/06/08 12:38:27;;;;;;;0.70;0.20;;;25.90;1.00;;;;;;4976532;28;20456;-72
2023/06/08 12:40:56;;;;;;;1.73;0.53;;;26.30;1.00;;;;;;4976415;28;21074;-73
2023/06/08 12:43:25;;;;;;;0.90;0.87;;;26.20;1.00;;;;;;4950524;28;20490;-72
2023/06/08 12:45:54;;;;;;;0.70;0.20;;;26.30;1.00;;;;;;4957200;28;20454;-73
2023/06/08 12:48:22;;;;;;;0.70;0.23;;;26.30;1.00;;;;;;4957117;29;20785;-72
2023/06/08 12:50:50;;;;;;;1.00;0.60;;;26.10;1.00;;;;;;4956546;28;20549;-72
2023/06/08 12:53:18;;;;;;;1.20;0.47;;;26.00;1.00;;;;;;4956443;29;20553;-72
2023/06/08 12:55:46;;;;;;;0.70;0.20;;;25.90;1.00;;;;;;4962586;28;20451;-73
2023/06/08 12:58:16;;;;;;;1.90;0.40;;;25.80;1.00;;;;;;4959019;28;20538;-73
2023/06/08 13:00:44;;;;;;;0.80;0.20;;;25.70;1.00;;;;;;4956526;28;20446;-71
2023/06/08 13:03:12;;;;;;;0.90;0.30;;;25.60;1.00;;;;;;4956308;29;20532;-74
2023/06/08 13:05:40;;;;;;;0.70;0.20;;;25.50;1.00;;;;;;4955681;29;20454;-72
2023/06/08 13:08:09;;;;;;;0.70;0.20;;;25.40;1.00;;;;;;4959197;28;20493;-71
2023/06/08 13:10:38;;;;;;;1.10;0.27;;;25.40;1.00;;;;;;4960165;28;20973;-72
2023/06/08 13:13:07;;;;;;;0.70;0.10;;;25.40;1.00;;;;;;4955830;29;20443;-72
2023/06/08 13:15:37;;;;;;;0.70;0.20;;;25.40;1.00;;;;;;4953996;28;20451;-73
2023/06/08 13:18:06;;;;;;;0.70;0.10;;;;;;;;;;4958042;28;20450;-72
2023/06/08 13:20:35;;;;;;;1.07;0.20;;;25.40;1.00;;;;;;4950043;29;20479;-73
2023/06/08 13:23:03;;;;;;;0.70;0.20;;;25.40;1.00;;;;;;4960570;28;20509;-72
2023/06/08 13:25:31;;;;;;;0.70;0.10;;;25.50;1.00;;;;;;4976173;28;20481;-71
2023/06/08 13:27:59;;;;;;;0.70;0.10;;;25.50;1.00;;;;;;4975755;28;20449;-73
2023/06/08 13:30:27;;;;;;;0.70;0.20;;;25.60;1.00;;;;;;4965138;28;20545;-73
2023/06/08 13:33:00;;;;;;;0.70;0.10;;;25.70;1.00;;;;;;4959158;28;20446;-72
2023/06/08 13:35:29;;;;;;;0.70;0.20;;;26.00;1.00;;;;;;4975761;28;20434;-72
2023/06/08 13:37:57;;;;;;;0.70;0.10;;;26.30;1.00;;;;;;4975704;28;20505;-72
2023/06/08 13:40:31;;;;;;;0.70;0.20;;;26.50;1.00;;;;;;4960744;28;20578;-71
2023/06/08 13:42:59;;;;;;;0.70;0.10;;;26.70;1.00;;;;;;4953310;28;20556;-72
2023/06/08 13:45:27;;;;;;;0.70;0.10;;;26.60;1.00;;;;;;4960787;28;20443;-72
2023/06/08 13:47:55;;;;;;;0.70;0.10;;;27.00;1.00;;;;;;4960767;29;20454;-71
2023/06/08 13:50:26;;;;;;;0.70;0.20;;;27.10;1.00;;;;;;4961241;29;20445;-71
2023/06/08 13:52:56;;;;;;;0.70;0.20;;;27.20;1.00;;;;;;4951089;29;20447;-74
2023/06/08 13:55:25;;;;;;;0.87;0.40;;;27.40;1.00;;;;;;4955646;28;20828;-71
2023/06/08 13:57:53;;;;;;;0.90;0.60;;;27.50;1.00;;;;;;4956795;28;20909;-72
2023/06/08 14:00:21;;;;;;;0.70;0.20;;;27.50;1.00;;;;;;4956128;29;20537;-72
2023/06/08 14:02:49;;;;;;;0.70;0.20;;;27.80;1.00;;;;;;4954761;28;20478;-73
2023/06/08 14:05:19;;;;;;;0.70;0.10;;;27.90;1.00;;;;;;4955345;29;20482;-72
2023/06/08 14:07:49;;;;;;;0.70;0.17;;;27.90;1.00;;;;;;4954747;28;20459;-72
2023/06/08 14:10:17;;;;;;;0.70;0.10;;;27.90;1.00;;;;;;4942363;28;20480;-71
2023/06/08 14:12:46;;;;;;;0.70;0.20;;;;;;;;;;4964799;28;20502;-77
2023/06/08 14:15:15;;;;;;;0.70;0.20;;;28.00;1.00;;;;;;4954883;28;20474;-74
2023/06/08 14:17:43;;;;;;;0.70;0.10;;;27.90;1.00;;;;;;4957393;29;20863;-79
2023/06/08 14:20:15;;;;;;;0.70;0.10;;;27.80;1.00;;;;;;4957276;28;20446;-78
2023/06/08 14:22:43;;;;;;;0.70;0.20;;;27.90;1.00;;;;;;4959959;28;20470;-78
2023/06/08 14:25:12;;;;;;;1.30;0.30;;;27.90;1.00;;;;;;4958580;28;21018;-78
2023/06/08 14:27:40;;;;;;;1.27;1.17;;;27.90;1.00;;;;;;4957073;29;20493;-77
2023/06/08 14:30:08;;;;;;;0.80;0.63;;;27.80;1.00;;;;;;4954456;28;20533;-77
2023/06/08 14:32:37;;;;;;;0.80;0.50;;;27.70;1.00;;;;;;4956966;28;20489;-77
2023/06/08 14:35:07;;;;;;;1.03;0.77;;;27.40;1.00;;;;;;4948250;28;20510;-77
2023/06/08 14:37:35;;;;;;;0.77;0.27;;;27.20;1.00;;;;;;4949155;29;20446;-77
2023/06/08 14:40:03;;;;;;;0.70;0.20;;;26.90;1.00;;;;;;4956948;29;20447;-77
2023/06/08 14:42:34;;;;;;;1.10;1.00;;;26.90;1.00;;;;;;4954891;28;20979;-76
2023/06/08 14:45:01;;;;;;;0.80;0.50;;;26.10;1.00;;;;;;4953014;28;20481;-77
2023/06/08 14:47:29;;;;;;;3.27;2.10;;;25.70;1.00;;;;;;4975830;28;20536;-72
2023/06/08 14:49:57;;;;;;;0.80;0.40;;;25.30;1.00;;;;;;4961907;28;20448;-76
2023/06/08 14:52:25;;;;;;;0.80;0.33;;;;;;;;;;4958863;28;20982;-72
2023/06/08 14:54:53;;;;;;;0.80;0.30;;;21.90;1.00;;;;;;4955122;28;21012;-77
2023/06/08 14:57:21;;;;;;;0.80;0.73;;;24.30;1.00;;;;;;4952262;28;20461;-77
2023/06/08 14:59:50;;;;;;;1.00;0.50;;;24.20;1.00;;;;;;4956900;28;20809;-76
2023/06/08 15:02:18;;;;;;;0.70;0.10;;;23.70;1.00;;;;;;4954150;28;20569;-76
2023/06/08 15:04:46;;;;;;;0.70;0.10;;;23.50;1.00;;;;;;4954692;29;20518;-78
2023/06/08 15:07:14;;;;;;;0.70;0.30;;;23.30;1.00;;;;;;4955086;29;20879;-77
2023/06/08 15:09:42;;;;;;;0.80;0.40;;;23.10;1.00;;;;;;4954852;29;20504;-77
2023/06/08 15:12:11;;;;;;;0.70;0.20;;;;;;;;;;4954949;28;20477;-77
2023/06/08 15:14:39;;;;;;;0.70;0.30;;;;;;;;;;4954014;29;20453;-78
2023/06/08 15:17:08;;;;;;;0.70;0.10;;;22.80;1.00;;;;;;4954676;29;20473;-78
2023/06/08 15:19:36;;;;;;;2.67;2.23;;;;;;;;;;4955466;29;20445;-76
2023/06/08 15:22:05;;;;;;;0.70;0.20;;;22.70;1.00;;;;;;4954344;28;20509;-77
2023/06/08 15:24:33;;;;;;;3.97;1.70;;;22.70;1.00;;;;;;4954870;29;21014;-78
2023/06/08 15:27:01;;;;;;;0.80;0.50;;;22.80;1.00;;;;;;4955389;29;20456;-78
2023/06/08 15:29:30;;;;;;;0.80;0.50;;;;;;;;;;4954876;29;20457;-77
2023/06/08 15:31:58;;;;;;;0.70;0.20;;;22.90;1.00;;;;;;4954169;29;20626;-77
2023/06/08 15:34:27;;;;;;;0.90;0.77;;;22.80;1.00;;;;;;4954731;29;20448;-79
2023/06/08 15:36:56;;;;;;;1.53;0.57;;;;;;;;;;4954404;29;20489;-78
2023/06/08 15:39:24;;;;;;;0.90;0.50;;;23.00;1.00;;;;;;4954425;29;20463;-77
2023/06/08 15:41:51;;;;;;;0.83;0.43;;;22.90;1.00;;;;;;4953884;28;20518;-77
2023/06/08 15:44:19;;;;;;;1.30;0.87;;;22.90;1.00;;;;;;4953317;29;20527;-78
2023/06/08 15:46:47;;;;;;;0.70;0.20;;;22.70;1.00;;;;;;4954068;29;20448;-78
2023/06/08 15:49:15;;;;;;;1.63;0.77;;;22.70;1.00;;;;;;4954433;29;20796;-77
2023/06/08 15:51:45;;;;;;;1.53;0.87;;;22.80;1.00;;;;;;4954495;28;20487;-78
2023/06/08 15:54:13;;;;;;;0.70;0.20;;;22.80;1.00;;;;;;4955033;29;20449;-78
2023/06/08 15:56:41;;;;;;;1.27;1.17;;;22.80;1.00;;;;;;4955054;29;20441;-77
2023/06/08 15:59:10;;;;;;;0.70;0.37;;;22.80;1.00;;;;;;4955369;29;20450;-77
2023/06/08 16:01:38;;;;;;;1.00;0.30;;;22.90;1.00;;;;;;4954808;28;20924;-77
2023/06/08 16:04:06;;;;;;;0.70;0.30;;;22.90;1.00;;;;;;4954291;29;20580;-78
2023/06/08 16:06:35;;;;;;;0.70;0.20;;;22.90;1.00;;;;;;4956108;28;20460;-77
2023/06/08 16:09:04;;;;;;;0.70;0.10;;;23.10;1.00;;;;;;4957955;29;20937;-77
2023/06/08 16:11:32;;;;;;;0.70;0.20;;;23.20;1.00;;;;;;4958101;28;20949;-78
2023/06/08 16:14:04;;;;;;;0.70;0.20;;;;;;;;;;4957967;29;20936;-77
2023/06/08 16:16:32;;;;;;;0.70;0.20;;;;;;;;;;4959138;29;20445;-76
2023/06/08 16:19:00;;;;;;;0.70;0.20;;;23.50;1.00;;;;;;4958029;29;20567;-77
2023/06/08 16:21:30;;;;;;;0.70;0.17;;;23.70;1.00;;;;;;4957828;28;20842;-77
2023/06/08 16:23:58;;;;;;;1.97;0.87;;;23.70;1.00;;;;;;4957824;29;20453;-76
2023/06/08 16:26:28;;;;;;;0.87;0.37;;;23.80;1.00;;;;;;4958300;29;20998;-77
2023/06/08 16:28:56;;;;;;;0.70;0.20;;;;;;;;;;4958056;29;20498;-77
2023/06/08 16:31:24;;;;;;;0.70;0.30;;;24.00;1.00;;;;;;4957875;28;20473;-77
2023/06/08 16:33:52;;;;;;;0.70;0.20;;;24.20;1.00;;;;;;4956654;29;20556;-76
2023/06/08 16:36:20;;;;;;;0.70;0.20;;;24.30;1.00;;;;;;4957485;29;20441;-76
2023/06/08 16:38:50;;;;;;;0.70;0.10;;;;;;;;;;4958200;29;20443;-76
2023/06/08 16:41:19;;;;;;;0.70;0.20;;;24.50;1.00;;;;;;4956644;28;20600;-76
2023/06/08 16:43:49;;;;;;;0.70;0.10;;;24.50;1.00;;;;;;4956162;29;20961;-77
2023/06/08 16:46:17;;;;;;;0.70;0.20;;;24.50;1.00;;;;;;4957556;29;21047;-77
2023/06/08 16:48:45;;;;;;;0.70;0.20;;;24.50;1.00;;;;;;4960936;29;20453;-77
2023/06/08 16:51:13;;;;;;;0.70;0.10;;;24.50;1.00;;;;;;4974704;28;20498;-77
2023/06/08 16:53:41;;;;;;;0.70;0.20;;;24.40;1.00;;;;;;4973283;29;20454;-76
2023/06/08 16:56:09;;;;;;;0.70;0.20;;;;;;;;;;4969369;29;20446;-77
2023/06/08 16:58:38;;;;;;;0.70;0.10;;;24.50;1.00;;;;;;4959130;29;20903;-77
2023/06/08 17:01:07;;;;;;;0.70;0.20;;;24.70;1.00;;;;;;4958178;28;20512;-76
2023/06/08 17:03:36;;;;;;;0.70;0.20;;;24.80;1.00;;;;;;4957656;29;20546;-76
2023/06/08 17:06:04;;;;;;;0.70;0.20;;;25.10;1.00;;;;;;4958131;29;20486;-78
2023/06/08 17:08:35;;;;;;;0.70;0.20;;;25.20;1.00;;;;;;4964208;28;20524;-78